Cedarfalls, Iowa
Current Conditions -  °F | °C
As of 7:54 PM on Tuesday 21 Oct 2014 (Local Time) from KALO Reporting Station
Clear Clear  
Wind Chill:   Ceiling: Unl
Heat Index:   Visibility: 10mi
Dew Point:   Wind: 9mph
Humidity: 74%   Direction: 110°ESE
Pressure: 30.18"   Gusts: NA
Location:  42.5035°N, 92.4936°W
Report Text: KALO 220054Z 11008KT 10SM CLR 07/03 A3018 RMK AO2 SLP226 T00720028
Loading
Personal Weather Stations






























Interactive Weather Map
Tropical Storm Tracking
New forecast layout! Learn more

10-Day Weather Forecast

Advertisements
Track Severe Weather on mobile